TimeEST,TemperatureF,Dew PointF,Humidity,Sea Level PressureIn,VisibilityMPH,Wind Direction,Wind SpeedMPH,Gust SpeedMPH,PrecipitationIn,Events,Conditions,WindDirDegrees,DateUTC
12:15 AM,35.2,27.3,73,29.96,10.0,ENE,5.8,-,N/A,,Overcast,70,2012-12-08 05:15:00
12:35 AM,35.1,27.5,74,29.96,10.0,ENE,5.8,-,N/A,,Overcast,60,2012-12-08 05:35:00
12:55 AM,34.7,27.5,75,29.96,10.0,ENE,6.9,-,N/A,,Mostly Cloudy,60,2012-12-08 05:55:00
1:15 AM,34.7,27.5,75,29.95,10.0,ENE,9.2,16.1,N/A,,Mostly Cloudy,70,2012-12-08 06:15:00
1:35 AM,34.5,27.5,76,29.96,10.0,NE,9.2,-,N/A,,Overcast,50,2012-12-08 06:35:00
1:55 AM,34.5,27.3,75,29.95,10.0,NE,5.8,-,N/A,,Overcast,40,2012-12-08 06:55:00
2:15 AM,34.3,27.1,75,29.95,10.0,ENE,9.2,-,N/A,,Overcast,60,2012-12-08 07:15:00
2:35 AM,34.3,27.0,74,29.96,10.0,NE,8.1,-,N/A,,Overcast,40,2012-12-08 07:35:00
2:56 AM,34.2,26.6,74,29.96,10.0,ENE,4.6,-,N/A,,Overcast,60,2012-12-08 07:56:00
3:16 AM,34.0,26.6,74,29.95,10.0,ENE,6.9,-,N/A,,Overcast,70,2012-12-08 08:16:00
3:36 AM,33.8,27.1,77,29.95,7.0,East,6.9,-,N/A,Snow,Light Snow,80,2012-12-08 08:36:00
3:56 AM,33.1,27.9,81,29.95,7.0,East,4.6,-,N/A,Snow,Light Snow,80,2012-12-08 08:56:00
4:16 AM,33.1,27.7,81,29.94,10.0,ENE,4.6,-,N/A,,Overcast,70,2012-12-08 09:16:00
4:36 AM,32.9,27.5,81,29.93,10.0,East,6.9,-,N/A,,Overcast,80,2012-12-08 09:36:00
4:56 AM,32.5,27.5,82,29.93,10.0,ENE,6.9,-,N/A,,Overcast,60,2012-12-08 09:56:00
5:11 AM,32.7,27.3,81,29.93,10.0,ENE,4.6,-,N/A,,Overcast,60,2012-12-08 10:11:00
5:31 AM,32.5,26.6,79,29.93,10.0,ENE,6.9,-,N/A,,Overcast,60,2012-12-08 10:31:00
6:12 AM,32.5,26.6,79,29.94,10.0,East,4.6,-,N/A,,Overcast,80,2012-12-08 11:12:00
6:32 AM,32.2,27.0,81,29.95,10.0,Calm,Calm,-,N/A,,Overcast,0,2012-12-08 11:32:00
6:52 AM,32.0,27.1,82,29.95,10.0,Calm,Calm,-,N/A,Snow,Light Snow,0,2012-12-08 11:52:00
7:12 AM,32.0,27.7,84,29.96,7.0,Calm,Calm,-,N/A,Snow,Light Snow,0,2012-12-08 12:12:00
7:32 AM,31.8,27.5,84,29.96,7.0,Calm,Calm,-,N/A,Snow,Light Snow,0,2012-12-08 12:32:00
7:52 AM,31.8,27.7,85,29.97,10.0,Calm,Calm,-,N/A,,Overcast,0,2012-12-08 12:52:00
8:12 AM,32.0,27.5,83,29.96,10.0,ENE,3.5,-,N/A,,Overcast,70,2012-12-08 13:12:00
8:33 AM,32.0,27.3,83,29.97,10.0,ENE,5.8,-,N/A,,Overcast,60,2012-12-08 13:33:00
8:53 AM,32.0,27.5,83,29.98,10.0,Calm,Calm,-,N/A,,Overcast,0,2012-12-08 13:53:00
9:13 AM,32.2,28.6,87,29.99,2.5,Calm,Calm,-,N/A,Snow,Light Snow,0,2012-12-08 14:13:00
9:33 AM,31.8,28.9,89,29.99,1.0,Calm,Calm,-,N/A,Snow,Light Snow,0,2012-12-08 14:33:00
9:53 AM,31.8,29.5,91,29.99,1.0,Calm,Calm,-,N/A,Snow,Light Snow,0,2012-12-08 14:53:00
10:13 AM,31.6,29.7,92,30.00,0.5,Calm,Calm,-,N/A,Snow,Light Snow,0,2012-12-08 15:13:00
10:33 AM,32.0,30.4,94,30.01,1.0,Calm,Calm,-,N/A,Snow,Light Snow,0,2012-12-08 15:33:00
10:53 AM,32.0,30.6,94,30.01,0.8,Calm,Calm,-,N/A,Snow,Light Snow,0,2012-12-08 15:53:00
11:14 AM,32.9,31.1,93,30.02,2.0,North,5.8,-,N/A,Snow,Light Snow,360,2012-12-08 16:14:00
11:34 AM,33.4,31.1,91,30.02,10.0,North,3.5,-,N/A,,Overcast,360,2012-12-08 16:34:00
11:54 AM,34.3,29.7,83,30.01,10.0,North,5.8,-,N/A,,Overcast,360,2012-12-08 16:54:00
12:14 PM,34.2,29.1,82,30.01,10.0,NNE,4.6,-,N/A,,Overcast,20,2012-12-08 17:14:00
12:34 PM,34.3,28.6,79,30.01,10.0,North,4.6,-,N/A,,Overcast,360,2012-12-08 17:34:00
12:54 PM,34.7,28.0,77,30.01,10.0,North,4.6,-,N/A,,Overcast,350,2012-12-08 17:54:00
1:14 PM,34.9,27.9,76,30.02,10.0,Calm,Calm,-,N/A,,Overcast,0,2012-12-08 18:14:00
1:35 PM,35.6,26.8,70,30.01,10.0,North,6.9,-,N/A,,Overcast,360,2012-12-08 18:35:00
1:55 PM,36.1,27.3,70,30.02,10.0,North,4.6,-,N/A,,Overcast,10,2012-12-08 18:55:00
2:15 PM,34.9,28.6,78,30.02,10.0,NNW,4.6,-,N/A,,Overcast,330,2012-12-08 19:15:00
2:35 PM,34.7,28.8,79,30.03,10.0,Calm,Calm,-,N/A,,Overcast,0,2012-12-08 19:35:00
2:55 PM,34.7,27.7,76,30.03,10.0,North,6.9,-,N/A,,Overcast,360,2012-12-08 19:55:00
3:15 PM,35.1,27.1,73,30.04,10.0,North,4.6,-,N/A,,Overcast,10,2012-12-08 20:15:00
3:35 PM,35.1,26.6,71,30.05,10.0,North,5.8,-,N/A,,Overcast,360,2012-12-08 20:35:00
3:55 PM,34.9,26.1,70,30.04,10.0,North,5.8,-,N/A,,Overcast,10,2012-12-08 20:55:00
4:16 PM,34.2,25.7,71,30.05,10.0,Calm,Calm,-,N/A,,Overcast,0,2012-12-08 21:16:00
4:36 PM,34.0,24.8,69,30.06,10.0,NE,3.5,-,N/A,,Mostly Cloudy,40,2012-12-08 21:36:00
4:56 PM,33.8,24.4,69,30.07,10.0,Calm,Calm,-,N/A,,Mostly Cloudy,0,2012-12-08 21:56:00
5:16 PM,33.8,23.9,67,30.08,10.0,Calm,Calm,-,N/A,,Mostly Cloudy,0,2012-12-08 22:16:00
5:36 PM,32.7,25.5,75,30.10,10.0,Calm,Calm,-,N/A,,Overcast,0,2012-12-08 22:36:00
5:56 PM,33.8,24.1,68,30.11,10.0,Calm,Calm,-,N/A,,Overcast,0,2012-12-08 22:56:00
6:11 PM,33.8,23.9,67,30.13,10.0,Calm,Calm,-,N/A,,Overcast,0,2012-12-08 23:11:00
6:31 PM,33.3,24.4,70,30.13,10.0,Calm,Calm,-,N/A,,Overcast,0,2012-12-08 23:31:00
6:52 PM,33.6,22.8,65,30.12,10.0,Calm,Calm,-,N/A,,Overcast,0,2012-12-08 23:52:00
7:12 PM,33.4,23.4,67,30.13,10.0,Calm,Calm,-,N/A,,Overcast,0,2012-12-09 00:12:00
8:12 PM,32.0,27.9,85,30.15,10.0,Calm,Calm,-,N/A,,Overcast,0,2012-12-09 01:12:00
8:52 PM,33.3,25.3,73,30.14,10.0,ENE,4.6,-,N/A,,Overcast,60,2012-12-09 01:52:00
9:13 PM,32.9,25.2,73,30.14,10.0,Calm,Calm,-,N/A,,Overcast,0,2012-12-09 02:13:00
9:33 PM,32.0,25.0,75,30.14,10.0,Calm,Calm,-,N/A,,Mostly Cloudy,0,2012-12-09 02:33:00
9:53 PM,32.0,25.2,76,30.14,10.0,Calm,Calm,-,N/A,,Mostly Cloudy,0,2012-12-09 02:53:00
10:13 PM,31.6,25.3,78,30.14,10.0,Calm,Calm,-,N/A,,Mostly Cloudy,0,2012-12-09 03:13:00
10:33 PM,31.8,24.6,75,30.13,10.0,East,3.5,-,N/A,,Mostly Cloudy,100,2012-12-09 03:33:00
10:53 PM,32.0,24.3,73,30.14,10.0,Calm,Calm,-,N/A,,Clear,0,2012-12-09 03:53:00
11:13 PM,31.5,23.9,74,30.15,10.0,Calm,Calm,-,N/A,,Clear,0,2012-12-09 04:13:00
11:33 PM,31.3,23.0,71,30.15,10.0,Calm,Calm,-,N/A,,Clear,0,2012-12-09 04:33:00
11:54 PM,31.1,23.0,72,30.16,10.0,Calm,Calm,-,N/A,,Clear,0,2012-12-09 04:54:00